createdAt,value
2022-08-12T00:03:23.156Z,12.4
2022-08-12T00:18:17.234Z,12.4
2022-08-12T00:33:23.621Z,12.4
2022-08-12T00:48:19.259Z,12.4
2022-08-12T01:03:21.148Z,12.4
2022-08-12T01:18:21.260Z,12.4
2022-08-12T01:33:23.385Z,12.4
2022-08-12T01:48:23.514Z,12.4
2022-08-12T02:03:25.639Z,12.4
2022-08-12T02:18:25.655Z,12.5
2022-08-12T02:33:26.200Z,12.5
2022-08-12T02:48:27.959Z,12.5
2022-08-12T03:03:06.110Z,12.4
2022-08-12T03:18:30.767Z,12.5
2022-08-12T03:33:05.868Z,12.5
2022-08-12T03:48:07.897Z,12.5
2022-08-12T04:03:17.224Z,12.5
2022-08-12T04:18:09.600Z,12.5
2022-08-12T04:33:11.370Z,12.5
2022-08-12T04:48:13.267Z,12.5
2022-08-12T05:03:13.466Z,12.5
2022-08-12T05:18:23.319Z,12.5
2022-08-12T05:33:16.732Z,12.5
2022-08-12T05:48:18.171Z,12.5
2022-08-12T06:03:21.540Z,12.5
2022-08-12T06:18:19.902Z,12.5
2022-08-12T06:35:49.829Z,12.5
2022-08-12T06:48:20.117Z,12.5
2022-08-12T07:03:24.653Z,12.6
2022-08-12T07:18:24.797Z,12.8
2022-08-12T07:33:25.092Z,12.9
2022-08-12T07:48:26.821Z,13
2022-08-12T08:03:26.711Z,13.1
2022-08-12T08:18:29.417Z,13.2
2022-08-12T08:34:57.308Z,13.2
2022-08-12T08:48:29.843Z,13.3
2022-08-12T09:05:27.511Z,14
2022-08-12T09:18:17.352Z,13.9
2022-08-12T09:34:50.653Z,13.9
2022-08-12T09:48:22.683Z,13.9
2022-08-12T10:04:06.168Z,13.8
2022-08-12T10:18:12.155Z,13.8
2022-08-12T10:33:33.047Z,13.8
2022-08-12T10:48:37.250Z,13.7
2022-08-12T11:04:53.916Z,13.6
2022-08-12T11:18:25.236Z,13.5
2022-08-12T11:34:59.267Z,13.3
2022-08-12T11:48:27.870Z,13.2
2022-08-12T12:03:46.897Z,13.1
2022-08-12T12:18:34.582Z,13.1
2022-08-12T12:33:21.997Z,13.1
2022-08-12T12:48:26.073Z,13.1
2022-08-12T13:03:24.455Z,13.2
2022-08-12T13:18:31.973Z,13.3
2022-08-12T13:34:37.123Z,13.4
2022-08-12T13:48:34.293Z,13.5
2022-08-12T14:03:55.283Z,13.4
2022-08-12T14:18:29.701Z,13.3
2022-08-12T14:33:46.494Z,13.2
2022-08-12T14:48:31.546Z,13.1
2022-08-12T15:03:07.967Z,12.5
2022-08-12T15:18:10.938Z,12.5
2022-08-12T15:33:26.392Z,12.5
2022-08-12T15:48:31.257Z,12.5
2022-08-12T16:03:26.096Z,12.6
2022-08-12T16:18:27.966Z,12.6
2022-08-12T16:33:11.408Z,12.6
2022-08-12T16:48:37.349Z,12.6
2022-08-12T17:03:30.785Z,12.6
2022-08-12T17:19:10.763Z,12.6
2022-08-12T17:33:33.443Z,12.6
2022-08-12T17:48:34.579Z,12.5
2022-08-12T18:04:37.227Z,12.5
2022-08-12T18:18:20.886Z,12.5
2022-08-12T18:33:19.628Z,12.5
2022-08-12T18:48:20.553Z,12.5
2022-08-12T19:03:42.256Z,12.5
2022-08-12T19:18:24.362Z,12.5
2022-08-12T19:33:23.874Z,12.5
2022-08-12T19:48:23.482Z,12.5
2022-08-12T20:04:00.732Z,12.5
2022-08-12T20:18:59.594Z,12.5
2022-08-12T20:33:59.063Z,12.5
2022-08-12T20:48:32.992Z,12.5
2022-08-12T21:03:09.997Z,12.5
2022-08-12T21:18:32.533Z,12.5
2022-08-12T21:33:23.001Z,12.5
2022-08-12T21:48:08.588Z,12.5
2022-08-12T22:03:09.671Z,12.5
2022-08-12T22:18:11.241Z,12.5
2022-08-12T22:33:25.769Z,12.5
2022-08-12T22:48:12.523Z,12.5
2022-08-12T23:03:57.386Z,12.5
2022-08-12T23:18:19.284Z,12.5
2022-08-12T23:34:04.146Z,12.5
2022-08-12T23:48:33.529Z,12.5
